createdAt,value
2022-08-05T00:01:36.316Z,1.67
2022-08-05T00:04:17.512Z,1.70
2022-08-05T00:06:47.046Z,1.75
2022-08-05T00:09:19.551Z,1.60
2022-08-05T00:11:55.752Z,1.40
2022-08-05T00:14:27.658Z,1.60
2022-08-05T00:16:58.106Z,1.55
2022-08-05T00:19:32.871Z,1.48
2022-08-05T00:22:11.306Z,1.50
2022-08-05T00:24:42.394Z,1.67
2022-08-05T00:27:28.552Z,1.40
2022-08-05T00:30:03.448Z,1.60
2022-08-05T00:32:31.960Z,1.55
2022-08-05T00:35:07.559Z,1.40
2022-08-05T00:37:53.414Z,1.65
2022-08-05T00:40:26.766Z,1.40
2022-08-05T00:43:00.391Z,1.60
2022-08-05T00:45:38.587Z,1.50
2022-08-05T00:48:13.026Z,1.52
2022-08-05T00:50:44.375Z,1.50
2022-08-05T00:54:00.330Z,1.70
2022-08-05T00:56:05.542Z,1.52
2022-08-05T00:58:38.091Z,1.42
2022-08-05T01:01:09.069Z,1.48
2022-08-05T01:03:38.607Z,1.50
2022-08-05T01:06:14.145Z,1.70
2022-08-05T01:08:44.666Z,1.75
2022-08-05T01:11:22.718Z,2.00
2022-08-05T01:14:03.810Z,2.00
2022-08-05T01:16:44.460Z,1.80
2022-08-05T01:19:46.308Z,1.77
2022-08-05T01:22:41.593Z,1.98
2022-08-05T01:25:39.632Z,1.65
2022-08-05T01:28:30.546Z,1.77
2022-08-05T01:31:03.426Z,1.60
2022-08-05T01:33:35.965Z,2.08
2022-08-05T01:36:12.950Z,1.70
2022-08-05T01:38:43.431Z,1.70
2022-08-05T01:41:16.518Z,1.90
2022-08-05T01:43:53.703Z,1.73
2022-08-05T01:46:42.280Z,1.70
2022-08-05T01:49:22.924Z,1.90
2022-08-05T01:52:17.437Z,1.80
2022-08-05T01:54:59.015Z,1.88
2022-08-05T01:58:18.941Z,1.80
2022-08-05T02:00:29.881Z,1.80
2022-08-05T02:03:07.663Z,1.70
2022-08-05T02:05:59.686Z,2.40
2022-08-05T02:08:30.760Z,2.08
2022-08-05T02:11:06.047Z,2.08
2022-08-05T02:13:53.062Z,2.10
2022-08-05T02:16:28.087Z,2.20
2022-08-05T02:21:29.214Z,2.60
2022-08-05T02:24:10.231Z,2.65
2022-08-05T02:26:54.717Z,3.33
2022-08-05T02:29:58.226Z,3.17
2022-08-05T02:32:23.758Z,3.45
2022-08-05T02:34:55.295Z,3.13
2022-08-05T02:37:25.284Z,3.50
2022-08-05T02:39:55.004Z,3.38
2022-08-05T02:42:26.140Z,3.10
2022-08-05T02:44:58.749Z,3.03
2022-08-05T02:48:06.970Z,3.47
2022-08-05T02:50:19.065Z,3.42
2022-08-05T02:52:48.313Z,3.53
2022-08-05T02:55:17.678Z,3.95
2022-08-05T02:58:19.949Z,3.60
2022-08-05T03:00:49.928Z,4.22
2022-08-05T03:03:20.907Z,3.45
2022-08-05T03:06:53.879Z,3.45
2022-08-05T03:08:43.181Z,3.30
2022-08-05T03:11:54.843Z,3.20
2022-08-05T03:14:08.049Z,2.88
2022-08-05T03:16:36.770Z,3.00
2022-08-05T03:19:12.756Z,3.13
2022-08-05T03:21:48.837Z,3.30
2022-08-05T03:24:27.562Z,3.30
2022-08-05T03:26:58.431Z,3.55
2022-08-05T03:29:44.785Z,3.40
2022-08-05T03:32:16.261Z,3.80
2022-08-05T03:34:51.366Z,3.50
2022-08-05T03:37:20.912Z,3.45
2022-08-05T03:40:11.750Z,3.30
2022-08-05T03:42:51.511Z,4.07
2022-08-05T03:45:23.335Z,3.13
2022-08-05T03:47:56.853Z,3.38
2022-08-05T03:50:30.194Z,3.23
2022-08-05T03:55:51.304Z,3.33
2022-08-05T03:56:12.225Z,4.05
2022-08-05T03:58:48.041Z,4.55
2022-08-05T04:01:22.050Z,4.72
2022-08-05T04:04:09.211Z,3.97
2022-08-05T04:06:47.433Z,7.20
2022-08-05T04:09:25.946Z,5.47
2022-08-05T04:11:56.381Z,4.90
2022-08-05T04:14:30.074Z,4.80
2022-08-05T04:17:00.926Z,4.70
2022-08-05T04:19:31.459Z,4.05
2022-08-05T04:22:08.863Z,4.13
2022-08-05T04:24:43.920Z,4.55
2022-08-05T04:27:20.216Z,5.38
2022-08-05T04:30:03.752Z,5.80
2022-08-05T04:32:33.392Z,4.80
2022-08-05T04:35:03.765Z,4.93
2022-08-05T04:38:01.278Z,5.60
2022-08-05T04:40:23.113Z,6.43
2022-08-05T04:42:51.459Z,6.50
2022-08-05T04:45:31.188Z,7.15
2022-08-05T04:48:18.375Z,6.50
2022-08-05T04:51:03.021Z,6.38
2022-08-05T04:53:35.424Z,6.97
2022-08-05T04:56:32.958Z,6.78
2022-08-05T04:58:52.678Z,7.22
2022-08-05T05:02:05.564Z,6.93
2022-08-05T05:04:09.476Z,6.65
2022-08-05T05:06:44.828Z,6.72
2022-08-05T05:09:18.916Z,7.65
2022-08-05T05:11:53.176Z,7.20
2022-08-05T05:14:27.928Z,7.60
2022-08-05T05:17:00.656Z,8.77
2022-08-05T05:19:36.631Z,8.82
2022-08-05T05:22:22.847Z,8.98
2022-08-05T05:24:57.874Z,9.32
2022-08-05T05:27:44.415Z,11.27
2022-08-05T05:30:15.419Z,10.75
2022-08-05T05:32:57.325Z,9.75
2022-08-05T05:35:34.111Z,9.48
2022-08-05T05:38:13.172Z,9.00
2022-08-05T05:40:49.432Z,10.35
2022-08-05T05:43:27.940Z,8.98
2022-08-05T05:46:15.697Z,8.68
2022-08-05T05:48:44.846Z,8.63
2022-08-05T05:51:20.107Z,8.90
2022-08-05T05:53:57.540Z,8.73
2022-08-05T05:56:32.240Z,7.93
2022-08-05T05:59:03.164Z,8.40
2022-08-05T06:01:36.986Z,8.45
2022-08-05T06:06:36.429Z,8.45
2022-08-05T06:09:07.714Z,8.85
2022-08-05T06:11:39.361Z,8.80
2022-08-05T06:14:08.063Z,7.78
2022-08-05T06:16:37.276Z,8.85
2022-08-05T06:19:07.348Z,8.90
2022-08-05T06:21:38.428Z,10.73
2022-08-05T06:24:12.101Z,10.13
2022-08-05T06:26:51.530Z,11.02
2022-08-05T06:29:45.330Z,11.85
2022-08-05T06:32:26.281Z,12.25
2022-08-05T06:34:58.654Z,13.15
2022-08-05T06:37:56.301Z,12.48
2022-08-05T06:40:17.892Z,11.45
2022-08-05T06:42:51.552Z,14.85
2022-08-05T06:46:02.915Z,14.43
2022-08-05T06:48:47.060Z,14.82
2022-08-05T06:51:00.255Z,15.85
2022-08-05T06:53:29.410Z,16.05
2022-08-05T06:55:59.364Z,18.58
2022-08-05T06:58:36.498Z,19.90
2022-08-05T07:01:07.078Z,16.73
2022-08-05T07:03:35.879Z,15.50
2022-08-05T07:06:06.076Z,13.00
2022-08-05T07:08:47.913Z,10.77
2022-08-05T07:11:22.227Z,10.40
2022-08-05T07:14:20.037Z,10.32
2022-08-05T07:17:58.676Z,8.43
2022-08-05T07:20:32.485Z,8.27
2022-08-05T07:22:38.938Z,7.90
2022-08-05T07:25:22.509Z,8.50
2022-08-05T07:28:05.328Z,9.30
2022-08-05T07:30:40.305Z,8.82
2022-08-05T07:33:15.520Z,8.98
2022-08-05T07:36:02.190Z,10.75
2022-08-05T07:38:35.657Z,11.68
2022-08-05T07:42:06.863Z,12.65
2022-08-05T07:44:06.068Z,15.05
2022-08-05T07:46:45.943Z,12.95
2022-08-05T07:49:18.014Z,13.95
2022-08-05T07:51:53.441Z,13.73
2022-08-05T07:54:31.619Z,12.35
2022-08-05T07:57:17.860Z,11.85
2022-08-05T07:59:51.361Z,11.38
2022-08-05T08:02:26.571Z,10.30
2022-08-05T08:04:56.077Z,9.75
2022-08-05T08:07:24.756Z,8.68
2022-08-05T08:09:56.992Z,7.38
2022-08-05T08:12:35.549Z,6.65
2022-08-05T08:15:15.605Z,6.15
2022-08-05T08:17:50.734Z,5.55
2022-08-05T08:21:00.144Z,5.30
2022-08-05T08:24:02.215Z,6.28
2022-08-05T08:26:02.646Z,5.18
2022-08-05T08:28:36.849Z,5.28
2022-08-05T08:31:17.333Z,4.80
2022-08-05T08:33:51.775Z,5.28
2022-08-05T08:36:38.197Z,6.22
2022-08-05T08:39:15.463Z,5.15
2022-08-05T08:45:18.857Z,4.38
2022-08-05T08:47:47.699Z,5.63
2022-08-05T08:50:31.102Z,4.82
2022-08-05T08:52:57.626Z,4.05
2022-08-05T08:55:32.134Z,3.72
2022-08-05T08:58:17.460Z,3.58
2022-08-05T09:00:46.858Z,2.97
2022-08-05T09:03:19.161Z,3.22
2022-08-05T09:06:09.132Z,3.20
2022-08-05T09:08:40.515Z,3.30
2022-08-05T09:11:12.172Z,3.15
2022-08-05T09:14:09.214Z,3.22
2022-08-05T09:16:31.290Z,3.20
2022-08-05T09:18:59.760Z,3.42
2022-08-05T09:22:21.772Z,3.30
2022-08-05T09:24:18.169Z,3.70
2022-08-05T09:26:48.605Z,3.22
2022-08-05T09:29:20.871Z,3.25
2022-08-05T09:32:45.964Z,3.00
2022-08-05T09:34:54.955Z,3.10
2022-08-05T09:38:17.209Z,3.30
2022-08-05T09:40:32.121Z,3.20
2022-08-05T09:43:02.064Z,3.25
2022-08-05T09:46:06.671Z,3.55
2022-08-05T09:48:30.310Z,3.40
2022-08-05T09:51:01.801Z,3.03
2022-08-05T09:53:54.431Z,3.40
2022-08-05T09:56:27.386Z,3.17
2022-08-05T09:59:00.509Z,3.47
2022-08-05T10:01:32.395Z,3.40
2022-08-05T10:04:04.556Z,3.22
2022-08-05T10:06:41.480Z,2.80
2022-08-05T10:09:28.325Z,2.93
2022-08-05T10:12:30.251Z,3.40
2022-08-05T10:15:20.404Z,3.00
2022-08-05T10:18:14.036Z,3.38
2022-08-05T10:20:47.913Z,3.30
2022-08-05T10:23:34.442Z,3.10
2022-08-05T10:26:14.368Z,3.78
2022-08-05T10:28:44.108Z,4.18
2022-08-05T10:32:50.500Z,4.80
2022-08-05T10:34:03.338Z,3.90
2022-08-05T10:36:32.101Z,4.05
2022-08-05T10:39:11.741Z,3.90
2022-08-05T10:41:56.802Z,4.47
2022-08-05T10:44:31.865Z,4.32
2022-08-05T10:47:26.487Z,5.43
2022-08-05T10:50:32.838Z,4.57
2022-08-05T10:52:58.588Z,3.97
2022-08-05T10:55:30.307Z,4.18
2022-08-05T10:58:11.256Z,4.13
2022-08-05T11:00:46.828Z,3.90
2022-08-05T11:03:25.629Z,3.40
2022-08-05T11:06:15.792Z,3.10
2022-08-05T11:09:31.877Z,3.00
2022-08-05T11:12:50.792Z,2.80
2022-08-05T11:16:00.276Z,2.30
2022-08-05T11:18:29.755Z,2.17
2022-08-05T11:20:58.953Z,2.08
2022-08-05T11:24:05.660Z,1.92
2022-08-05T11:26:33.442Z,1.90
2022-08-05T11:29:12.699Z,1.70
2022-08-05T11:31:57.453Z,2.10
2022-08-05T11:34:47.532Z,1.70
2022-08-05T11:38:26.664Z,1.70
2022-08-05T11:41:13.987Z,1.70
2022-08-05T11:44:05.874Z,1.80
2022-08-05T11:47:09.296Z,1.85
2022-08-05T11:49:28.254Z,2.00
2022-08-05T11:51:58.799Z,1.83
2022-08-05T11:54:33.989Z,2.10
2022-08-05T11:57:08.384Z,1.85
2022-08-05T11:59:53.213Z,2.40
2022-08-05T12:02:31.467Z,2.00
2022-08-05T12:05:06.982Z,1.80
2022-08-05T12:08:10.329Z,1.90
2022-08-05T12:10:43.110Z,2.05
2022-08-05T12:13:27.947Z,1.70
2022-08-05T12:16:14.449Z,1.77
2022-08-05T12:18:53.144Z,1.88
2022-08-05T12:21:26.979Z,1.95
2022-08-05T12:24:07.180Z,1.90
2022-08-05T12:26:38.940Z,2.20
2022-08-05T12:29:09.360Z,1.75
2022-08-05T12:31:50.108Z,1.75
2022-08-05T12:34:26.723Z,1.77
2022-08-05T12:36:58.546Z,1.63
2022-08-05T12:39:37.302Z,1.63
2022-08-05T12:42:18.097Z,1.70
2022-08-05T12:44:51.491Z,1.60
2022-08-05T12:47:30.565Z,2.08
2022-08-05T12:50:13.454Z,1.98
2022-08-05T12:52:43.336Z,1.90
2022-08-05T12:55:22.689Z,2.00
2022-08-05T12:58:48.881Z,1.70
2022-08-05T13:02:02.520Z,1.98
2022-08-05T13:03:41.474Z,1.50
2022-08-05T13:06:16.031Z,1.55
2022-08-05T13:08:52.129Z,1.70
2022-08-05T13:12:01.436Z,1.67
2022-08-05T13:14:24.680Z,1.55
2022-08-05T13:17:09.743Z,1.58
2022-08-05T13:19:40.475Z,1.60
2022-08-05T13:22:29.230Z,1.50
2022-08-05T13:25:05.643Z,1.70
2022-08-05T13:27:39.196Z,1.60
2022-08-05T13:30:32.752Z,1.92
2022-08-05T13:33:01.517Z,2.25
2022-08-05T13:35:43.282Z,1.90
2022-08-05T13:38:20.500Z,2.17
2022-08-05T13:41:01.457Z,2.10
2022-08-05T13:43:45.266Z,2.13
2022-08-05T13:46:37.662Z,2.40
2022-08-05T13:49:10.261Z,2.35
2022-08-05T13:51:41.787Z,2.42
2022-08-05T13:54:17.210Z,2.47
2022-08-05T13:56:55.066Z,2.40
2022-08-05T13:59:27.150Z,2.38
2022-08-05T14:01:59.553Z,2.20
2022-08-05T14:04:50.154Z,2.10
2022-08-05T14:07:26.072Z,2.22
2022-08-05T14:10:13.164Z,2.28
2022-08-05T14:12:48.423Z,2.33
2022-08-05T14:16:07.006Z,2.20
2022-08-05T14:18:14.923Z,1.95
2022-08-05T14:20:47.261Z,1.85
2022-08-05T14:23:23.347Z,2.22
2022-08-05T14:25:54.490Z,1.75
2022-08-05T14:28:28.590Z,1.70
2022-08-05T14:30:57.314Z,1.67
2022-08-05T14:33:25.847Z,1.58
2022-08-05T14:35:54.880Z,1.77
2022-08-05T14:38:32.267Z,1.50
2022-08-05T14:41:06.393Z,1.60
2022-08-05T14:43:59.451Z,1.50
2022-08-05T14:46:29.789Z,1.30
2022-08-05T14:49:04.190Z,1.20
2022-08-05T14:51:37.610Z,1.30
2022-08-05T14:54:28.350Z,1.10
2022-08-05T14:56:55.533Z,1.08
2022-08-05T14:59:25.367Z,1.20
2022-08-05T15:04:29.162Z,1.30
2022-08-05T15:06:57.758Z,1.30
2022-08-05T15:09:51.388Z,0.90
2022-08-05T15:12:16.800Z,0.98
2022-08-05T15:14:49.709Z,1.00
2022-08-05T15:17:47.339Z,1.13
2022-08-05T15:20:18.701Z,1.17
2022-08-05T15:22:52.158Z,1.10
2022-08-05T15:25:23.448Z,1.00
2022-08-05T15:28:14.294Z,0.98
2022-08-05T15:33:56.678Z,0.90
2022-08-05T15:36:05.457Z,0.98
2022-08-05T15:38:40.800Z,1.02
2022-08-05T15:41:21.539Z,0.90
2022-08-05T15:43:54.671Z,0.93
2022-08-05T15:46:25.303Z,0.80
2022-08-05T15:48:58.631Z,0.80
2022-08-05T15:52:12.645Z,0.80
2022-08-05T15:54:19.713Z,0.90
2022-08-05T15:56:48.059Z,0.90
2022-08-05T15:59:19.947Z,0.80
2022-08-05T16:04:25.637Z,0.80
2022-08-05T16:06:55.780Z,0.70
2022-08-05T16:09:24.976Z,0.77
2022-08-05T16:11:56.494Z,0.73
2022-08-05T16:14:24.903Z,0.70
2022-08-05T16:16:57.606Z,0.70
2022-08-05T16:20:05.657Z,0.90
2022-08-05T16:22:15.502Z,0.88
2022-08-05T16:24:51.183Z,0.80
2022-08-05T16:27:32.278Z,0.80
2022-08-05T16:30:25.748Z,0.85
2022-08-05T16:32:56.773Z,0.80
2022-08-05T16:35:28.531Z,0.70
2022-08-05T16:38:03.007Z,0.70
2022-08-05T16:40:47.917Z,0.70
2022-08-05T16:43:24.044Z,0.80
2022-08-05T16:46:05.897Z,0.85
2022-08-05T16:48:39.118Z,0.70
2022-08-05T16:51:09.452Z,0.70
2022-08-05T16:54:02.450Z,1.00
2022-08-05T16:56:30.501Z,0.80
2022-08-05T16:59:03.127Z,0.80
2022-08-05T17:01:54.024Z,0.75
2022-08-05T17:04:27.984Z,0.75
2022-08-05T17:07:01.253Z,0.80
2022-08-05T17:09:38.785Z,0.75
2022-08-05T17:12:22.627Z,0.80
2022-08-05T17:15:08.491Z,0.75
2022-08-05T17:17:41.953Z,0.70
2022-08-05T17:20:14.794Z,0.70
2022-08-05T17:22:43.335Z,0.70
2022-08-05T17:25:33.945Z,0.70
2022-08-05T17:28:01.786Z,0.73
2022-08-05T17:30:30.221Z,0.70
2022-08-05T17:32:58.698Z,0.75
2022-08-05T17:35:32.556Z,0.80
2022-08-05T17:38:17.454Z,0.80
2022-08-05T17:40:46.036Z,0.70
2022-08-05T17:43:16.006Z,0.70
2022-08-05T17:45:47.822Z,0.70
2022-08-05T17:48:21.133Z,0.80
2022-08-05T17:50:54.588Z,0.70
2022-08-05T17:53:25.764Z,0.75
2022-08-05T17:55:59.750Z,0.80
2022-08-05T17:58:32.269Z,0.80
2022-08-05T18:01:01.220Z,0.63
2022-08-05T18:03:59.641Z,0.70
2022-08-05T18:06:19.805Z,0.73
2022-08-05T18:08:57.967Z,0.70
2022-08-05T18:11:33.555Z,0.88
2022-08-05T18:14:06.600Z,0.80
2022-08-05T18:16:51.080Z,0.80
2022-08-05T18:19:22.708Z,0.70
2022-08-05T18:22:09.010Z,0.80
2022-08-05T18:24:40.200Z,0.73
2022-08-05T18:27:08.806Z,0.80
2022-08-05T18:29:51.992Z,0.70
2022-08-05T18:32:28.075Z,0.90
2022-08-05T18:34:58.703Z,0.70
2022-08-05T18:37:34.353Z,0.80
2022-08-05T18:40:34.233Z,1.10
2022-08-05T18:42:58.617Z,0.80
2022-08-05T18:45:40.946Z,0.80
2022-08-05T18:48:11.215Z,0.80
2022-08-05T18:51:01.754Z,0.65
2022-08-05T18:53:50.466Z,0.82
2022-08-05T18:56:21.897Z,0.70
2022-08-05T18:58:54.999Z,0.80
2022-08-05T19:01:47.413Z,0.70
2022-08-05T19:04:24.074Z,0.77
2022-08-05T19:06:53.713Z,0.80
2022-08-05T19:09:23.600Z,0.90
2022-08-05T19:12:01.062Z,0.85
2022-08-05T19:14:53.378Z,0.75
2022-08-05T19:17:19.321Z,0.60
2022-08-05T19:19:48.660Z,0.70
2022-08-05T19:22:17.945Z,0.68
2022-08-05T19:24:54.353Z,0.70
2022-08-05T19:27:27.930Z,0.77
2022-08-05T19:29:58.982Z,0.70
2022-08-05T19:32:27.814Z,0.73
2022-08-05T19:34:56.725Z,0.70
2022-08-05T19:37:29.808Z,0.70
2022-08-05T19:40:09.989Z,0.70
2022-08-05T19:42:39.128Z,0.70
2022-08-05T19:45:08.871Z,0.70
2022-08-05T19:47:43.016Z,0.82
2022-08-05T19:50:12.694Z,0.70
2022-08-05T19:52:41.368Z,0.73
2022-08-05T19:56:15.347Z,0.70
2022-08-05T19:58:19.781Z,0.77
2022-08-05T20:00:50.560Z,0.73
2022-08-05T20:03:20.661Z,0.70
2022-08-05T20:05:51.141Z,0.80
2022-08-05T20:08:24.577Z,0.77
2022-08-05T20:10:55.150Z,1.00
2022-08-05T20:13:30.007Z,0.80
2022-08-05T20:15:59.576Z,0.80
2022-08-05T20:18:33.967Z,0.80
2022-08-05T20:21:05.137Z,0.75
2022-08-05T20:23:39.960Z,0.77
2022-08-05T20:26:22.008Z,0.80
2022-08-05T20:28:54.037Z,0.73
2022-08-05T20:31:36.805Z,0.80
2022-08-05T20:34:06.073Z,0.90
2022-08-05T20:36:37.038Z,0.77
2022-08-05T20:39:07.707Z,0.80
2022-08-05T20:41:43.858Z,0.70
2022-08-05T20:44:19.161Z,0.93
2022-08-05T20:46:59.091Z,0.90
2022-08-05T20:49:28.216Z,0.73
2022-08-05T20:51:58.068Z,0.88
2022-08-05T20:54:43.239Z,0.80
2022-08-05T20:57:42.095Z,0.90
2022-08-05T21:00:34.897Z,0.90
2022-08-05T21:03:07.182Z,0.82
2022-08-05T21:05:47.620Z,0.80
2022-08-05T21:08:32.891Z,0.70
2022-08-05T21:11:11.910Z,0.80
2022-08-05T21:13:47.820Z,0.93
2022-08-05T21:16:30.219Z,0.70
2022-08-05T21:19:01.134Z,0.88
2022-08-05T21:21:39.019Z,0.80
2022-08-05T21:24:15.704Z,0.70
2022-08-05T21:26:53.543Z,0.80
2022-08-05T21:29:31.447Z,0.90
2022-08-05T21:32:02.164Z,0.70
2022-08-05T21:34:31.671Z,0.80
2022-08-05T21:37:01.667Z,0.90
2022-08-05T21:39:30.474Z,0.90
2022-08-05T21:42:03.052Z,0.90
2022-08-05T21:44:33.376Z,0.82
2022-08-05T21:47:02.017Z,0.90
2022-08-05T21:49:58.932Z,0.80
2022-08-05T21:52:27.451Z,0.90
2022-08-05T21:54:57.560Z,1.00
2022-08-05T21:57:35.021Z,0.90
2022-08-05T22:00:11.241Z,0.98
2022-08-05T22:02:43.966Z,0.90
2022-08-05T22:05:14.223Z,0.85
2022-08-05T22:07:59.567Z,1.00
2022-08-05T22:10:31.012Z,1.00
2022-08-05T22:13:09.356Z,0.80
2022-08-05T22:16:01.367Z,0.80
2022-08-05T22:18:36.371Z,1.00
2022-08-05T22:21:17.894Z,0.80
2022-08-05T22:24:08.996Z,0.80
2022-08-05T22:26:59.865Z,0.70
2022-08-05T22:29:30.560Z,0.90
2022-08-05T22:32:03.448Z,1.10
2022-08-05T22:34:32.557Z,1.00
2022-08-05T22:37:03.858Z,0.85
2022-08-05T22:39:34.493Z,0.90
2022-08-05T22:42:12.448Z,1.00
2022-08-05T22:44:48.424Z,0.90
2022-08-05T22:47:29.828Z,1.00
2022-08-05T22:50:19.630Z,0.90
2022-08-05T22:52:49.639Z,0.80
2022-08-05T22:55:21.380Z,1.00
2022-08-05T22:57:50.780Z,0.98
2022-08-05T23:00:21.162Z,0.90
2022-08-05T23:02:53.216Z,0.90
2022-08-05T23:05:23.437Z,1.00
2022-08-05T23:07:53.287Z,0.90
2022-08-05T23:10:23.995Z,1.00
2022-08-05T23:12:55.610Z,0.93
2022-08-05T23:15:26.993Z,0.90
2022-08-05T23:18:03.310Z,1.00
2022-08-05T23:20:37.509Z,0.80
2022-08-05T23:23:08.657Z,1.02
2022-08-05T23:25:51.688Z,0.80
2022-08-05T23:28:27.790Z,0.98
2022-08-05T23:31:16.247Z,0.80
2022-08-05T23:34:04.361Z,0.90
2022-08-05T23:36:38.615Z,1.00
2022-08-05T23:39:17.314Z,0.90
2022-08-05T23:42:01.183Z,0.90
2022-08-05T23:44:31.313Z,1.00
2022-08-05T23:47:02.428Z,0.90
2022-08-05T23:49:35.602Z,1.00
2022-08-05T23:52:25.205Z,0.90
2022-08-05T23:54:55.183Z,1.10
2022-08-05T23:57:24.464Z,1.10
